Time;durP1;ratioP1;P1;durP2;ratioP2;P2;SDS_P1;SDS_P2;PMS_P1;PMS_P2;Temp;Humidity;BMP_temperature;BMP_pressure;BME280_temperature;BME280_humidity;BME280_pressure;Samples;Min_cycle;Max_cycle;Signal;HPM_P1;HPM_P2
2024/03/12 00:00:28;;;;;;;13.60;10.70;;;;;;;6.00;86.47;99926.06;5110862;28;20207;-60
2024/03/12 00:02:57;;;;;;;11.40;8.70;;;;;;;5.98;87.15;99920.06;5104508;28;20208;-61
2024/03/12 00:05:25;;;;;;;10.77;9.00;;;;;;;5.95;87.37;99921.75;5110895;28;20325;-61
2024/03/12 00:07:53;;;;;;;11.90;8.80;;;;;;;5.95;87.59;99921.75;5110659;28;20204;-63
2024/03/12 00:10:20;;;;;;;12.70;9.03;;;;;;;5.96;87.43;99923.44;5108800;28;20199;-61
2024/03/12 00:12:49;;;;;;;11.37;9.53;;;;;;;5.96;88.15;99919.19;5106550;28;20199;-61
2024/03/12 00:15:22;;;;;;;14.37;9.70;;;;;;;5.97;87.60;99909.84;5109168;28;20239;-63
2024/03/12 00:17:53;;;;;;;11.60;8.63;;;;;;;5.97;88.27;99915.81;5110911;28;20200;-62
2024/03/12 00:20:29;;;;;;;12.37;9.20;;;;;;;5.98;87.72;99911.53;5111370;28;20300;-62
2024/03/12 00:22:58;;;;;;;12.27;9.13;;;;;;;5.98;87.22;99908.97;5110518;28;20658;-62
2024/03/12 00:25:28;;;;;;;11.63;9.23;;;;;;;5.96;87.35;99914.06;5110359;28;20214;-62
2024/03/12 00:27:56;;;;;;;11.47;9.00;;;;;;;5.95;87.90;99906.41;5110574;28;20730;-63
2024/03/12 00:30:27;;;;;;;12.83;8.93;;;;;;;5.92;87.96;99914.91;5101818;28;20242;-59
2024/03/12 00:32:56;;;;;;;11.70;9.47;;;;;;;5.90;88.22;99905.50;5110542;28;20287;-61
2024/03/12 00:35:28;;;;;;;12.63;9.20;;;;;;;5.90;88.14;99897.84;5110831;28;20246;-64
2024/03/12 00:37:57;;;;;;;13.30;10.07;;;;;;;5.89;88.43;99898.66;5110548;28;20200;-60
2024/03/12 00:40:33;;;;;;;14.10;9.17;;;;;;;5.88;88.24;99902.06;5109271;28;20204;-60
2024/03/12 00:43:02;;;;;;;12.87;8.90;;;;;;;5.85;88.13;99904.59;5106972;28;20203;-60
2024/03/12 00:45:37;;;;;;;13.37;9.37;;;;;;;5.84;88.73;99905.47;5109734;28;20215;-63
2024/03/12 00:48:09;;;;;;;13.90;9.90;;;;;;;5.85;88.53;99904.59;5111870;28;20227;-64
2024/03/12 00:50:38;;;;;;;12.90;9.57;;;;;;;5.84;88.56;99892.69;5111140;28;20644;-61
2024/03/12 00:53:07;;;;;;;11.90;9.80;;;;;;;5.85;88.68;99902.06;5114392;28;20299;-61
2024/03/12 00:55:36;;;;;;;14.80;9.90;;;;;;;5.83;88.40;99894.38;5115175;28;20203;-60
2024/03/12 00:58:10;;;;;;;12.20;9.50;;;;;;;5.82;88.61;99905.47;5114712;28;20246;-60
2024/03/12 01:00:40;;;;;;;11.93;9.73;;;;;;;5.80;89.04;99902.88;5111659;28;20552;-60
2024/03/12 01:03:11;;;;;;;12.97;9.57;;;;;;;5.79;89.08;99896.06;5115186;28;20724;-61
2024/03/12 01:05:40;;;;;;;13.97;10.20;;;;;;;5.78;88.73;99896.94;5114036;27;20204;-62
2024/03/12 01:08:11;;;;;;;12.67;10.07;;;;;;;5.79;89.11;99895.22;5114878;28;20210;-61
2024/03/12 01:10:40;;;;;;;13.50;8.87;;;;;;;5.78;89.15;99896.03;5115213;28;20226;-62
2024/03/12 01:13:08;;;;;;;12.13;9.70;;;;;;;5.77;89.02;99896.91;5111424;28;20200;-61
2024/03/12 01:15:40;;;;;;;13.80;9.17;;;;;;;5.76;88.98;99896.06;5114928;28;20286;-63
2024/03/12 01:18:09;;;;;;;13.23;10.13;;;;;;;5.75;88.79;99893.50;5114983;28;20291;-60
2024/03/12 01:20:37;;;;;;;15.70;10.50;;;;;;;5.74;88.88;99902.88;5111278;28;20204;-61
2024/03/12 01:23:05;;;;;;;14.80;10.87;;;;;;;5.72;88.82;99890.91;5114118;27;20227;-60
2024/03/12 01:25:35;;;;;;;12.00;9.27;;;;;;;5.72;89.57;99894.31;5114497;28;20279;-60
2024/03/12 01:28:05;;;;;;;13.43;10.00;;;;;;;5.74;89.16;99891.75;5112460;28;20199;-60
2024/03/12 01:30:36;;;;;;;14.07;10.13;;;;;;;5.74;89.20;99896.88;5113944;28;20220;-60
2024/03/12 01:33:06;;;;;;;14.07;10.23;;;;;;;5.73;89.57;99896.03;5113957;28;20239;-66
2024/03/12 01:35:37;;;;;;;14.10;10.10;;;;;;;5.71;89.21;99889.22;5114647;28;20293;-63
2024/03/12 01:38:09;;;;;;;13.77;10.03;;;;;;;5.70;89.32;99890.88;5114172;28;20667;-61
2024/03/12 01:40:41;;;;;;;16.20;10.30;;;;;;;5.71;89.47;99895.19;5112051;27;20228;-60
2024/03/12 01:43:09;;;;;;;16.73;10.60;;;;;;;5.65;90.39;99887.47;5114435;27;20655;-60
2024/03/12 01:45:38;;;;;;;15.90;10.60;;;;;;;5.69;89.92;99893.44;5110894;28;20204;-62
2024/03/12 01:48:09;;;;;;;15.50;11.00;;;;;;;5.69;90.28;99898.56;5109867;28;20249;-61
2024/03/12 01:50:39;;;;;;;14.80;11.03;;;;;;;5.67;90.64;99890.91;5113695;28;20257;-65
2024/03/12 01:53:09;;;;;;;13.77;10.27;;;;;;;5.71;90.56;99891.78;5114117;28;20762;-62
2024/03/12 01:55:42;;;;;;;15.30;11.00;;;;;;;5.73;90.61;99896.03;5114351;28;20671;-60
2024/03/12 01:58:14;;;;;;;17.17;11.40;;;;;;;5.73;89.74;99888.34;5107810;28;20203;-63
2024/03/12 02:00:43;;;;;;;17.13;10.20;;;;;;;5.75;90.67;99890.94;5100996;28;20227;-60
2024/03/12 02:03:14;;;;;;;15.47;10.13;;;;;;;5.77;89.86;99892.63;5108125;28;20214;-63
2024/03/12 02:05:42;;;;;;;16.23;11.40;;;;;;;5.75;90.07;99889.22;5107344;28;20209;-61
2024/03/12 02:08:11;;;;;;;15.87;10.53;;;;;;;5.75;89.79;99889.22;5107863;28;20309;-60
2024/03/12 02:10:39;;;;;;;16.40;11.77;;;;;;;5.71;90.02;99887.50;5113593;28;20265;-62
2024/03/12 02:13:07;;;;;;;14.63;10.87;;;;;;;5.66;90.55;99889.16;5112776;28;20196;-60
2024/03/12 02:15:36;;;;;;;15.90;11.20;;;;;;;5.71;90.77;99892.63;5113645;28;20226;-61
2024/03/12 02:18:07;;;;;;;15.67;10.40;;;;;;;5.71;90.60;99886.66;5112769;28;20204;-61
2024/03/12 02:20:38;;;;;;;14.83;10.53;;;;;;;5.72;90.99;99885.81;5110849;28;20233;-62
2024/03/12 02:23:06;;;;;;;15.10;10.60;;;;;;;5.72;90.37;99888.38;5113143;28;20658;-60
2024/03/12 02:25:35;;;;;;;18.37;12.07;;;;;;;5.70;90.33;99883.22;5104829;28;20567;-62
2024/03/12 02:28:04;;;;;;;17.97;12.23;;;;;;;5.71;90.31;99884.09;5113308;28;20576;-61
2024/03/12 02:30:32;;;;;;;16.50;11.57;;;;;;;5.71;91.00;99886.66;5112884;28;20219;-64
2024/03/12 02:33:02;;;;;;;17.60;12.10;;;;;;;5.70;90.84;99882.38;5111194;28;20199;-61
2024/03/12 02:35:34;;;;;;;22.60;13.27;;;;;;;5.70;90.89;99884.94;5113112;28;20211;-62
2024/03/12 02:38:02;;;;;;;18.30;11.53;;;;;;;5.68;90.46;99890.03;5113780;27;20219;-60
2024/03/12 02:40:30;;;;;;;21.33;12.50;;;;;;;5.67;90.93;99887.47;5113263;28;20196;-62
2024/03/12 02:42:59;;;;;;;17.93;12.60;;;;;;;5.69;91.50;99890.91;5107653;28;20291;-60
2024/03/12 02:45:28;;;;;;;17.07;11.70;;;;;;;5.69;91.17;99884.06;5113276;28;20200;-61
2024/03/12 02:47:56;;;;;;;18.63;12.20;;;;;;;5.70;91.48;99884.94;5112806;28;20200;-60
2024/03/12 02:50:24;;;;;;;18.67;12.50;;;;;;;5.72;91.34;99889.22;5112863;28;20219;-60
2024/03/12 02:52:52;;;;;;;19.70;13.17;;;;;;;5.74;91.28;99884.97;5112464;28;20200;-61
2024/03/12 02:55:20;;;;;;;18.40;11.93;;;;;;;5.72;90.86;99884.09;5111472;27;20287;-61
2024/03/12 02:57:48;;;;;;;20.40;12.67;;;;;;;5.72;91.28;99886.66;5112792;28;20723;-60
2024/03/12 03:00:18;;;;;;;17.03;12.10;;;;;;;5.71;91.08;99882.41;5113286;28;20200;-64
2024/03/12 03:02:46;;;;;;;20.27;13.73;;;;;;;5.72;91.41;99876.44;5110753;28;20235;-62
2024/03/12 03:05:15;;;;;;;23.03;13.43;;;;;;;5.71;91.24;99871.31;5112457;28;20217;-61
2024/03/12 03:07:43;;;;;;;18.50;11.97;;;;;;;5.69;91.87;99878.13;5112705;28;20726;-62
2024/03/12 03:10:11;;;;;;;20.07;11.77;;;;;;;5.71;91.66;99868.78;5111888;28;20613;-61
2024/03/12 03:12:41;;;;;;;18.83;12.77;;;;;;;5.70;91.43;99875.56;5111203;28;20257;-62
2024/03/12 03:15:11;;;;;;;21.17;12.77;;;;;;;5.69;91.39;99868.75;5108067;28;20292;-61
2024/03/12 03:17:43;;;;;;;20.97;13.33;;;;;;;5.69;91.94;99867.88;5103912;28;20659;-61
2024/03/12 03:20:14;;;;;;;22.90;13.80;;;;;;;5.68;92.35;99861.06;5107199;28;20670;-62
2024/03/12 03:22:43;;;;;;;19.63;12.03;;;;;;;5.70;92.21;99864.47;5117092;27;20206;-60
2024/03/12 03:25:12;;;;;;;22.43;13.90;;;;;;;5.70;92.26;99870.44;5112321;28;20227;-61
2024/03/12 03:27:42;;;;;;;20.90;13.60;;;;;;;5.73;92.88;99870.47;5111611;28;20244;-63
2024/03/12 03:30:15;;;;;;;20.83;12.57;;;;;;;5.75;92.48;99873.91;5098814;28;20223;-60
2024/03/12 03:32:45;;;;;;;20.33;12.63;;;;;;;5.76;92.23;99864.53;5108883;28;20220;-61
2024/03/12 03:35:13;;;;;;;20.03;12.67;;;;;;;5.78;91.96;99870.47;5102709;28;20199;-62
2024/03/12 03:37:42;;;;;;;18.10;13.17;;;;;;;5.76;91.93;99861.97;5112577;28;20199;-61
2024/03/12 03:40:22;;;;;;;21.30;14.33;;;;;;;5.79;92.48;99870.50;5106425;28;20272;-61
2024/03/12 03:42:51;;;;;;;19.67;13.07;;;;;;;5.82;91.86;99870.53;5109562;28;20261;-63
2024/03/12 03:45:20;;;;;;;21.63;12.93;;;;;;;5.80;91.60;99856.00;5111573;28;20221;-61
2024/03/12 03:47:49;;;;;;;21.63;12.90;;;;;;;5.81;91.53;99868.78;5107637;28;20208;-61
2024/03/12 03:50:17;;;;;;;23.33;13.97;;;;;;;5.80;92.27;99859.41;5111550;28;20303;-61
2024/03/12 03:52:45;;;;;;;24.83;13.13;;;;;;;5.80;91.92;99867.09;5105058;28;20208;-62
2024/03/12 03:55:14;;;;;;;20.23;13.13;;;;;;;5.81;92.12;99861.13;5107988;28;20204;-62
2024/03/12 03:57:43;;;;;;;22.20;13.90;;;;;;;5.84;92.14;99856.88;5101328;28;20237;-61
2024/03/12 04:00:15;;;;;;;22.80;14.93;;;;;;;5.81;91.88;99856.00;5097885;28;20279;-61
2024/03/12 04:02:44;;;;;;;23.40;13.87;;;;;;;5.81;91.98;99852.59;5106143;28;20278;-62
2024/03/12 04:05:14;;;;;;;25.00;15.63;;;;;;;5.80;92.05;99854.31;5107958;28;20252;-62
2024/03/12 04:07:43;;;;;;;24.10;14.83;;;;;;;5.77;92.12;99851.72;5102336;28;20196;-61
2024/03/12 04:10:12;;;;;;;24.93;14.03;;;;;;;5.79;92.76;99854.31;5111993;28;21037;-61
2024/03/12 04:12:44;;;;;;;21.67;13.47;;;;;;;5.79;92.75;99859.44;5110801;28;20207;-62
2024/03/12 04:15:13;;;;;;;24.17;15.10;;;;;;;5.78;92.77;99861.13;5106847;28;20248;-62
2024/03/12 04:17:43;;;;;;;25.03;14.70;;;;;;;5.79;92.36;99859.44;5111369;28;20284;-61
2024/03/12 04:20:16;;;;;;;22.33;13.77;;;;;;;5.78;92.39;99862.81;5104659;28;20300;-61
2024/03/12 04:22:45;;;;;;;26.23;14.53;;;;;;;5.77;92.83;99851.72;5107286;28;20292;-61
2024/03/12 04:25:15;;;;;;;21.53;13.67;;;;;;;5.79;92.48;99867.09;5111638;28;20567;-61
2024/03/12 04:27:44;;;;;;;21.57;13.33;;;;;;;5.78;93.19;99850.91;5111317;28;20192;-61
2024/03/12 04:30:13;;;;;;;23.67;14.33;;;;;;;5.75;93.00;99858.56;5111158;28;20279;-60
2024/03/12 04:32:41;;;;;;;21.33;14.10;;;;;;;5.76;93.13;99854.28;5109529;28;20192;-62
2024/03/12 04:35:12;;;;;;;20.20;13.93;;;;;;;5.77;92.59;99861.09;5107015;28;20199;-61
2024/03/12 04:37:42;;;;;;;25.93;14.00;;;;;;;5.74;92.74;99855.97;5111377;28;20996;-60
2024/03/12 04:40:11;;;;;;;21.17;14.53;;;;;;;5.74;93.00;99858.53;5106222;28;20725;-61
2024/03/12 04:42:39;;;;;;;26.10;15.23;;;;;;;5.69;93.36;99858.50;5110213;28;20250;-65
2024/03/12 04:45:08;;;;;;;21.70;13.40;;;;;;;5.67;93.42;99859.34;5111150;28;20294;-61
2024/03/12 04:47:37;;;;;;;27.53;14.57;;;;;;;5.68;93.39;99868.75;5110897;28;20659;-62
2024/03/12 04:50:07;;;;;;;24.40;14.47;;;;;;;5.66;93.81;99868.72;5110802;28;20203;-61
2024/03/12 04:52:36;;;;;;;27.13;14.40;;;;;;;5.65;93.86;99869.56;5100507;28;20896;-62
2024/03/12 04:55:06;;;;;;;25.23;14.27;;;;;;;5.61;94.36;99865.28;5111171;28;20627;-61
2024/03/12 04:57:35;;;;;;;23.30;14.10;;;;;;;5.63;94.38;99872.97;5106296;28;20310;-62
2024/03/12 05:00:13;;;;;;;25.10;14.57;;;;;;;5.60;94.36;99863.59;5110063;28;20280;-62
2024/03/12 05:02:42;;;;;;;23.43;14.30;;;;;;;5.60;94.24;99871.25;5110819;28;20212;-61
2024/03/12 05:05:13;;;;;;;24.43;14.00;;;;;;;5.61;94.57;99870.41;5104937;28;20210;-62
2024/03/12 05:07:42;;;;;;;27.17;14.83;;;;;;;5.63;94.44;99878.91;5110738;28;20204;-61
2024/03/12 05:10:12;;;;;;;26.27;15.50;;;;;;;5.63;94.34;99873.81;5110797;28;20246;-61
2024/03/12 05:12:40;;;;;;;30.13;14.67;;;;;;;5.61;93.99;99878.06;5110707;28;20566;-61
2024/03/12 05:15:09;;;;;;;27.23;14.50;;;;;;;5.60;94.42;99881.47;5110037;28;20240;-60
2024/03/12 05:17:37;;;;;;;23.20;13.67;;;;;;;5.60;94.17;99878.03;5111304;28;20834;-61
2024/03/12 05:20:09;;;;;;;25.37;14.33;;;;;;;5.60;94.60;99873.81;5108779;28;20244;-61
2024/03/12 05:22:37;;;;;;;27.27;14.03;;;;;;;5.61;94.57;99880.63;5103978;28;20664;-62
2024/03/12 05:25:09;;;;;;;28.27;14.33;;;;;;;5.59;94.80;99882.31;5109939;28;20219;-60
2024/03/12 05:27:42;;;;;;;23.00;13.63;;;;;;;5.57;94.80;99886.56;5110620;28;20720;-61
2024/03/12 05:30:14;;;;;;;30.87;15.53;;;;;;;5.57;94.71;99884.88;5104443;28;20299;-62
2024/03/12 05:32:47;;;;;;;23.77;14.50;;;;;;;5.55;95.00;99883.13;5110696;28;20671;-60
2024/03/12 05:35:21;;;;;;;31.33;16.07;;;;;;;5.55;94.70;99878.88;5108800;28;20222;-62
2024/03/12 05:38:07;;;;;;;27.83;16.03;;;;;;;5.54;94.88;99887.41;5105209;28;20227;-61
2024/03/12 05:40:42;;;;;;;25.77;15.50;;;;;;;5.55;94.86;99886.53;5105012;27;20212;-62
2024/03/12 05:48:49;;;;;;;27.77;14.07;;;;;;;5.51;95.44;99889.06;5105284;28;20643;-61
2024/03/12 05:51:19;;;;;;;28.60;15.70;;;;;;;5.48;95.23;99891.59;5113152;28;20251;-62
2024/03/12 05:53:48;;;;;;;27.10;15.17;;;;;;;5.48;95.78;99902.69;5113941;28;20671;-62
2024/03/12 05:56:16;;;;;;;31.10;16.83;;;;;;;5.46;96.02;99898.44;5111267;28;20283;-63
2024/03/12 05:58:47;;;;;;;27.80;16.33;;;;;;;5.46;96.52;99895.88;5113581;28;20286;-62
2024/03/12 06:01:16;;;;;;;27.60;15.23;;;;;;;5.43;96.49;99903.50;5113597;28;20200;-62
2024/03/12 06:03:45;;;;;;;26.70;15.37;;;;;;;5.42;96.02;99889.88;5109712;28;20196;-63
2024/03/12 06:06:13;;;;;;;31.00;16.20;;;;;;;5.42;96.61;99896.69;5111178;28;20654;-62
2024/03/12 06:08:41;;;;;;;27.67;13.70;;;;;;;5.42;96.57;99897.56;5112631;27;20200;-63
2024/03/12 06:11:09;;;;;;;28.27;16.33;;;;;;;5.41;96.79;99894.97;5113333;28;20200;-62
2024/03/12 06:13:38;;;;;;;29.33;16.00;;;;;;;5.40;96.70;99898.38;5113406;27;20277;-62
2024/03/12 06:16:08;;;;;;;30.90;17.50;;;;;;;5.40;97.31;99898.38;5110486;28;20192;-63
2024/03/12 06:18:36;;;;;;;30.70;17.50;;;;;;;5.42;96.90;99905.22;5111241;28;20204;-62
2024/03/12 06:21:07;;;;;;;28.03;16.83;;;;;;;5.42;97.74;99905.22;5109053;27;20283;-63
2024/03/12 06:23:35;;;;;;;26.47;14.53;;;;;;;5.43;97.11;99906.06;5113007;28;20567;-61
2024/03/12 06:26:05;;;;;;;29.67;15.67;;;;;;;5.45;97.24;99909.47;5113868;28;20599;-62
2024/03/12 06:28:34;;;;;;;25.97;14.93;;;;;;;5.47;96.87;99915.47;5113385;28;20204;-61
2024/03/12 06:31:03;;;;;;;28.50;16.63;;;;;;;5.46;96.89;99903.53;5113071;28;20234;-61
2024/03/12 06:33:34;;;;;;;26.97;15.37;;;;;;;5.46;96.81;99919.72;5108624;28;20648;-61
2024/03/12 06:36:03;;;;;;;29.43;16.03;;;;;;;5.46;97.01;99916.31;5103751;28;20671;-61
2024/03/12 06:38:31;;;;;;;29.50;16.20;;;;;;;5.46;97.32;99918.88;5107691;28;20269;-65
2024/03/12 06:40:59;;;;;;;27.33;15.33;;;;;;;5.47;97.58;99920.56;5103697;27;20204;-61
2024/03/12 06:43:28;;;;;;;28.77;15.50;;;;;;;5.49;97.39;99921.44;5109470;28;20292;-62
2024/03/12 06:45:56;;;;;;;31.03;16.30;;;;;;;5.52;97.48;99932.56;5113147;28;20663;-63
2024/03/12 06:48:24;;;;;;;27.27;15.83;;;;;;;5.56;97.06;99936.84;5116214;27;20570;-64
2024/03/12 06:50:53;;;;;;;27.60;15.73;;;;;;;5.56;97.13;99934.28;5113963;27;20204;-62
2024/03/12 06:53:21;;;;;;;26.53;16.20;;;;;;;5.61;97.27;99936.84;5110480;27;20247;-62
2024/03/12 06:55:49;;;;;;;33.63;15.83;;;;;;;5.66;96.85;99921.53;5112977;27;20215;-63
2024/03/12 06:58:21;;;;;;;24.33;15.63;;;;;;;5.64;96.24;99930.91;5113073;28;20204;-62
2024/03/12 07:00:50;;;;;;;31.63;15.20;;;;;;;5.63;96.49;99930.03;5112446;28;20207;-62
2024/03/12 07:03:21;;;;;;;31.90;15.50;;;;;;;5.65;96.80;99933.47;5112774;28;20659;-63
2024/03/12 07:05:50;;;;;;;31.03;15.93;;;;;;;5.70;96.96;99926.69;5110203;28;20201;-62
2024/03/12 07:08:25;;;;;;;30.27;15.43;;;;;;;5.76;96.39;99934.41;5104178;28;20291;-61
2024/03/12 07:10:53;;;;;;;27.20;14.37;;;;;;;5.79;96.29;99936.13;5111796;28;20239;-63
2024/03/12 07:13:23;;;;;;;28.00;15.60;;;;;;;5.76;95.33;99934.41;5110174;27;20239;-63
2024/03/12 07:15:51;;;;;;;27.30;14.53;;;;;;;5.78;95.30;99935.28;5112670;27;20557;-62
2024/03/12 07:18:21;;;;;;;27.20;15.03;;;;;;;5.77;95.26;99937.81;5121585;27;20643;-63
2024/03/12 07:20:52;;;;;;;31.80;16.93;;;;;;;5.75;94.72;99935.25;5105909;28;20718;-62
2024/03/12 07:23:21;;;;;;;35.10;16.00;;;;;;;5.76;95.09;99942.06;5105958;27;20683;-63
2024/03/12 07:25:50;;;;;;;24.33;14.87;;;;;;;5.77;94.60;99930.13;5112436;28;20210;-65
2024/03/12 07:28:18;;;;;;;26.63;15.73;;;;;;;5.75;94.88;99937.81;5112525;28;20200;-64
2024/03/12 07:30:51;;;;;;;29.97;15.60;;;;;;;5.76;95.16;99939.50;5110927;27;20727;-63
2024/03/12 07:33:19;;;;;;;29.83;15.60;;;;;;;5.75;94.73;99940.38;5108523;28;20231;-62
2024/03/12 07:35:48;;;;;;;28.30;15.57;;;;;;;5.76;94.83;99943.78;5107473;28;20250;-62
2024/03/12 07:38:17;;;;;;;29.27;15.73;;;;;;;5.76;94.50;99946.31;5109039;28;20196;-69
2024/03/12 07:40:47;;;;;;;30.90;17.37;;;;;;;5.74;94.82;99946.34;5100177;28;20215;-63
2024/03/12 07:43:15;;;;;;;29.80;15.43;;;;;;;5.73;94.69;99957.38;5110520;28;20265;-63
2024/03/12 07:45:48;;;;;;;32.27;17.07;;;;;;;5.71;94.55;99943.75;5112741;28;20210;-63
2024/03/12 07:48:16;;;;;;;26.77;15.63;;;;;;;5.74;95.06;99954.00;5111909;28;20581;-64
2024/03/12 07:50:44;;;;;;;29.60;14.33;;;;;;;5.74;95.06;99948.00;5110808;28;20210;-65
2024/03/12 07:53:12;;;;;;;32.07;15.77;;;;;;;5.74;94.95;99951.44;5111605;28;20686;-64
2024/03/12 07:55:42;;;;;;;27.17;14.80;;;;;;;5.75;94.91;99939.50;5109917;28;20208;-63
2024/03/12 07:58:12;;;;;;;23.53;14.73;;;;;;;5.76;95.30;99948.88;5106566;28;20204;-64
2024/03/12 08:00:40;;;;;;;28.27;14.87;;;;;;;5.77;95.14;99945.47;5104470;28;20201;-63
2024/03/12 08:03:09;;;;;;;25.60;14.57;;;;;;;5.79;95.35;99947.19;5112691;28;20567;-66
2024/03/12 08:05:37;;;;;;;34.03;16.03;;;;;;;5.82;94.47;99939.56;5112757;28;20220;-65
2024/03/12 08:08:07;;;;;;;26.43;15.27;;;;;;;5.85;94.62;99946.38;5105297;27;20215;-63
2024/03/12 08:10:37;;;;;;;28.00;15.63;;;;;;;5.87;94.08;99938.72;5107828;27;20673;-63
2024/03/12 08:13:05;;;;;;;32.10;15.70;;;;;;;5.89;94.41;99943.00;5112982;28;20207;-62
2024/03/12 08:15:35;;;;;;;27.37;15.63;;;;;;;5.92;94.02;99942.16;5105839;28;20268;-66
2024/03/12 08:18:04;;;;;;;26.57;14.33;;;;;;;5.95;94.64;99944.75;5113362;28;20197;-66
2024/03/12 08:20:46;;;;;;;26.23;14.77;;;;;;;6.00;94.59;99940.50;5114323;28;20214;-64
2024/03/12 08:23:15;;;;;;;27.37;14.93;;;;;;;6.03;93.43;99945.66;5112679;27;20654;-63
2024/03/12 08:25:43;;;;;;;26.43;15.33;;;;;;;6.02;93.45;99949.06;5109808;28;20196;-64
2024/03/12 08:28:16;;;;;;;29.17;14.27;;;;;;;6.03;93.42;99945.66;5111936;28;20204;-63
2024/03/12 08:30:46;;;;;;;28.23;15.23;;;;;;;6.04;92.51;99945.69;5111422;28;20287;-63
2024/03/12 08:33:17;;;;;;;27.87;14.40;;;;;;;6.03;93.29;99950.75;5111212;28;20223;-63
2024/03/12 08:35:45;;;;;;;27.70;15.50;;;;;;;6.10;93.20;99951.66;5113377;28;20557;-64
2024/03/12 08:38:14;;;;;;;26.50;15.23;;;;;;;6.11;92.33;99954.22;5113885;28;20218;-62
2024/03/12 08:40:43;;;;;;;25.13;13.80;;;;;;;6.11;92.25;99955.91;5112243;28;20263;-63
2024/03/12 08:43:12;;;;;;;24.23;14.43;;;;;;;6.08;92.05;99956.78;5110649;28;20701;-63
2024/03/12 08:45:40;;;;;;;29.57;15.43;;;;;;;6.08;92.47;99953.38;5106862;28;20196;-62
2024/03/12 08:48:09;;;;;;;33.73;15.33;;;;;;;6.08;92.24;99951.66;5102644;28;20200;-62
2024/03/12 08:50:38;;;;;;;25.00;14.13;;;;;;;6.11;92.11;99958.47;5100088;28;20246;-64
2024/03/12 08:53:09;;;;;;;26.83;14.50;;;;;;;6.11;91.53;99953.38;5109520;28;20739;-62
2024/03/12 08:55:40;;;;;;;28.37;14.60;;;;;;;6.14;91.64;99966.16;5111010;28;20196;-63
2024/03/12 08:58:08;;;;;;;28.97;14.80;;;;;;;6.14;91.70;99956.78;5104670;28;20214;-63
2024/03/12 09:00:37;;;;;;;24.40;14.27;;;;;;;6.20;92.01;99967.06;5105031;28;20211;-64
2024/03/12 09:03:06;;;;;;;27.43;15.27;;;;;;;6.17;91.06;99956.81;5104945;28;20201;-62
2024/03/12 09:05:35;;;;;;;24.93;14.17;;;;;;;6.17;91.39;99964.47;5107030;28;20556;-63
2024/03/12 09:08:04;;;;;;;28.47;15.27;;;;;;;6.17;91.21;99959.38;5110679;28;20216;-65
2024/03/12 09:10:33;;;;;;;27.93;14.53;;;;;;;6.20;91.38;99955.97;5110162;28;20257;-63
2024/03/12 09:13:01;;;;;;;24.23;14.37;;;;;;;6.24;91.14;99966.22;5110818;28;20219;-65
2024/03/12 09:15:31;;;;;;;21.53;13.27;;;;;;;6.29;91.15;99959.41;5112779;28;20200;-65
2024/03/12 09:18:04;;;;;;;25.23;13.90;;;;;;;6.29;90.62;99964.53;5113195;28;20231;-65
2024/03/12 09:20:33;;;;;;;27.07;15.33;;;;;;;6.29;89.87;99967.09;5109195;28;20204;-65
2024/03/12 09:23:02;;;;;;;27.03;14.03;;;;;;;6.29;90.25;99969.66;5111676;28;20211;-64
2024/03/12 09:25:31;;;;;;;23.80;13.37;;;;;;;6.28;90.02;99965.38;5114022;27;20307;-62
2024/03/12 09:27:58;;;;;;;25.90;14.50;;;;;;;6.32;90.13;99962.84;5113267;28;20192;-64
2024/03/12 09:30:27;;;;;;;19.87;12.70;;;;;;;6.33;89.54;99962.84;5112703;28;20215;-63
2024/03/12 09:32:55;;;;;;;23.40;13.80;;;;;;;6.34;89.93;99962.03;5113293;28;20202;-64
2024/03/12 09:35:24;;;;;;;24.27;14.00;;;;;;;6.37;89.26;99968.84;5113676;28;20649;-65
2024/03/12 09:37:52;;;;;;;25.57;14.10;;;;;;;6.39;89.40;99957.75;5103134;28;20204;-64
2024/03/12 09:40:22;;;;;;;24.17;13.93;;;;;;;6.41;89.41;99957.78;5114106;28;20196;-64
2024/03/12 09:42:51;;;;;;;23.20;13.47;;;;;;;6.45;89.01;99964.63;5112896;28;20204;-63
2024/03/12 09:45:20;;;;;;;22.47;13.83;;;;;;;6.45;88.67;99964.63;5113796;27;20203;-65
2024/03/12 09:47:48;;;;;;;22.80;13.30;;;;;;;6.44;88.78;99962.88;5105167;28;20957;-62
2024/03/12 09:50:19;;;;;;;21.70;13.33;;;;;;;6.45;88.93;99970.59;5113306;28;20208;-63
2024/03/12 09:52:49;;;;;;;24.57;12.30;;;;;;;6.46;89.00;99964.63;5113210;27;20546;-63
2024/03/12 09:55:19;;;;;;;23.73;14.13;;;;;;;6.48;88.55;99965.50;5114662;27;20207;-62
2024/03/12 09:57:51;;;;;;;24.53;12.60;;;;;;;6.54;87.69;99980.00;5114153;28;20734;-64
2024/03/12 10:00:22;;;;;;;21.10;12.87;;;;;;;6.56;87.48;99972.34;5111439;28;20203;-64
2024/03/12 10:02:50;;;;;;;25.80;14.23;;;;;;;6.56;87.78;99978.31;5110113;28;20722;-67
2024/03/12 10:05:21;;;;;;;22.97;13.03;;;;;;;6.57;88.20;99974.91;5103768;28;20230;-62
2024/03/12 10:08:07;;;;;;;20.97;12.83;;;;;;;6.60;87.07;99974.06;5112461;28;20207;-64
2024/03/12 10:10:38;;;;;;;21.40;12.77;;;;;;;6.57;86.56;99968.94;5111675;28;20203;-63
2024/03/12 10:13:12;;;;;;;19.57;13.07;;;;;;;6.60;87.75;99980.03;5110915;28;20231;-64
2024/03/12 10:15:49;;;;;;;23.50;12.50;;;;;;;6.63;87.82;99974.94;5113563;28;20215;-63
2024/03/12 10:18:18;;;;;;;19.83;12.13;;;;;;;6.65;87.53;99977.47;5109487;28;20195;-63
2024/03/12 10:20:46;;;;;;;20.80;12.43;;;;;;;6.63;87.25;99974.94;5113784;28;20232;-62
2024/03/12 10:23:16;;;;;;;23.10;13.20;;;;;;;6.65;86.61;99977.47;5113880;28;20639;-62
2024/03/12 10:25:45;;;;;;;21.83;12.33;;;;;;;6.67;86.68;99978.34;5112079;28;20291;-62
2024/03/12 10:28:15;;;;;;;19.43;12.53;;;;;;;6.66;86.60;99974.91;5113339;28;20207;-62
2024/03/12 10:30:45;;;;;;;21.43;12.63;;;;;;;6.68;86.83;99977.50;5113366;28;20211;-62
2024/03/12 10:33:17;;;;;;;24.00;13.13;;;;;;;6.70;87.20;99973.22;5112789;28;20200;-63
2024/03/12 10:35:46;;;;;;;19.10;12.30;;;;;;;6.69;86.96;99969.81;5111879;28;20246;-63
2024/03/12 10:38:25;;;;;;;23.20;12.47;;;;;;;6.72;87.65;99974.09;5113287;28;20236;-61
2024/03/12 10:40:55;;;;;;;21.03;12.53;;;;;;;6.72;87.82;99976.66;5112772;28;20291;-62
2024/03/12 10:43:25;;;;;;;21.67;12.63;;;;;;;6.69;87.67;99969.81;5112412;28;20204;-61
2024/03/12 10:45:54;;;;;;;19.53;12.47;;;;;;;6.70;87.69;99974.09;5112118;27;20210;-61
2024/03/12 10:48:23;;;;;;;20.30;11.83;;;;;;;6.72;88.22;99968.97;5110695;28;20220;-62
2024/03/12 10:50:53;;;;;;;19.73;12.53;;;;;;;6.75;87.40;99968.97;5113090;28;20662;-62
2024/03/12 10:53:24;;;;;;;21.33;11.63;;;;;;;6.72;86.98;99969.81;5112683;28;20295;-62
2024/03/12 10:55:57;;;;;;;22.40;11.90;;;;;;;6.78;87.47;99974.97;5112433;27;20953;-62
2024/03/12 10:58:30;;;;;;;25.03;12.53;;;;;;;6.81;87.26;99965.56;5113189;28;20887;-61
2024/03/12 11:00:59;;;;;;;18.83;12.13;;;;;;;6.83;87.56;99966.44;5108911;28;20211;-63
2024/03/12 11:03:27;;;;;;;20.90;11.40;;;;;;;6.87;87.89;99960.47;5112577;28;20203;-64
2024/03/12 11:05:57;;;;;;;17.57;10.73;;;;;;;6.91;87.50;99970.72;5112709;28;20586;-63
2024/03/12 11:08:27;;;;;;;18.37;11.40;;;;;;;6.96;86.60;99965.63;5114182;27;20623;-63
2024/03/12 11:10:56;;;;;;;19.03;11.57;;;;;;;7.00;86.87;99965.63;5111627;28;20211;-64
2024/03/12 11:13:24;;;;;;;17.77;11.13;;;;;;;7.00;86.44;99968.19;5111449;28;20223;-63
2024/03/12 11:15:56;;;;;;;21.10;12.13;;;;;;;7.01;86.60;99964.75;5111301;28;20212;-62
2024/03/12 11:18:34;;;;;;;17.60;10.60;;;;;;;7.06;87.00;99969.88;5112038;28;20203;-63
2024/03/12 11:21:04;;;;;;;15.90;10.87;;;;;;;7.08;87.03;99970.75;5111408;28;20196;-63
2024/03/12 11:23:32;;;;;;;20.60;11.47;;;;;;;7.08;86.67;99963.06;5112515;27;20560;-62
2024/03/12 11:26:04;;;;;;;15.73;11.07;;;;;;;7.10;86.22;99961.34;5111501;28;20703;-61
2024/03/12 11:28:33;;;;;;;16.50;11.10;;;;;;;7.18;86.68;99963.91;5112683;28;20693;-64
2024/03/12 11:31:04;;;;;;;15.47;10.37;;;;;;;7.24;86.04;99963.94;5111602;28;20667;-62
2024/03/12 11:33:49;;;;;;;16.30;10.77;;;;;;;7.22;85.09;99968.22;5109284;28;20231;-62
2024/03/12 11:36:23;;;;;;;18.57;10.97;;;;;;;7.14;84.79;99967.34;5110884;28;20200;-61
2024/03/12 11:38:53;;;;;;;18.50;11.17;;;;;;;7.05;85.08;99973.31;5110913;28;20227;-62
2024/03/12 11:41:21;;;;;;;17.50;10.67;;;;;;;6.96;85.77;99966.47;5111209;27;20249;-62
2024/03/12 11:43:49;;;;;;;16.67;10.87;;;;;;;6.94;85.96;99967.31;5109809;28;20214;-61